Parkin, Arkansas
Current Conditions -  °F | °C
As of 3:08 AM on Sunday 26 Oct 2014 (Local Time) from KAWM Reporting Station
Haze Haze  
Wind Chill: 14°   Ceiling: Unl
Heat Index: 14°   Visibility: 1.5mi
Dew Point: 14°   Wind: 3mph
Humidity: 100%   Direction: 160°SSE
Pressure: 29.99"   Gusts: NA
Location:  35.26°N, 90.57°W
Report Text: KAWM 260808Z AUTO 16003KT 1 1/2SM BR CLR 14/14 A2999 RMK AO2 T01440144 $
Loading
Personal Weather Stations






























Interactive Weather Map
Tropical Storm Tracking
New forecast layout! Learn more

10-Day Weather Forecast

Advertisements
Track Severe Weather on mobile